createdAt,value
2018-06-01T00:00:57.126Z,0
2018-06-01T00:02:07.109Z,0
2018-06-01T00:03:17.094Z,0
2018-06-01T00:04:26.592Z,0
2018-06-01T00:05:36.316Z,0
2018-06-01T00:06:46.295Z,0
2018-06-01T00:07:56.008Z,0
2018-06-01T00:09:05.988Z,0
2018-06-01T00:10:15.706Z,0
2018-06-01T00:11:25.164Z,0
2018-06-01T00:12:35.152Z,0
2018-06-01T00:13:45.128Z,0
2018-06-01T00:14:55.155Z,0
2018-06-01T00:16:05.145Z,0
2018-06-01T00:17:15.883Z,0
2018-06-01T00:18:25.594Z,0
2018-06-01T00:19:35.058Z,0
2018-06-01T00:20:45.090Z,0
2018-06-01T00:21:54.830Z,0
2018-06-01T00:23:04.299Z,0
2018-06-01T00:24:14.276Z,0
2018-06-01T00:25:24.279Z,0
2018-06-01T00:26:33.986Z,0
2018-06-01T00:27:43.973Z,0
2018-06-01T00:28:53.952Z,0
2018-06-01T00:30:03.964Z,0
2018-06-01T00:31:13.684Z,0
2018-06-01T00:32:23.667Z,0
2018-06-01T00:33:33.638Z,0
2018-06-01T00:34:43.609Z,0
2018-06-01T00:35:53.588Z,0
2018-06-01T00:37:03.556Z,0
2018-06-01T00:38:13.539Z,0
2018-06-01T00:39:23.526Z,0
2018-06-01T00:40:33.527Z,0
2018-06-01T00:41:43.556Z,0
2018-06-01T00:42:53.588Z,0
2018-06-01T00:44:03.584Z,0
2018-06-01T00:45:13.562Z,0
2018-06-01T00:46:23.576Z,0
2018-06-01T00:47:33.628Z,0
2018-06-01T00:48:43.742Z,0
2018-06-01T00:49:53.202Z,0
2018-06-01T00:51:02.925Z,0
2018-06-01T00:52:12.906Z,0
2018-06-01T00:53:22.870Z,0
2018-06-01T00:54:32.847Z,0
2018-06-01T00:55:42.815Z,0
2018-06-01T00:56:52.786Z,0
2018-06-01T00:58:02.763Z,0
2018-06-01T00:59:12.736Z,0
2018-06-01T01:00:22.451Z,0
2018-06-01T01:01:32.441Z,0
2018-06-01T01:02:42.422Z,0
2018-06-01T01:03:52.135Z,0
2018-06-01T01:05:02.117Z,0
2018-06-01T01:06:11.828Z,0
2018-06-01T01:07:21.291Z,0
2018-06-01T01:08:31.273Z,0
2018-06-01T01:09:41.249Z,0
2018-06-01T01:10:50.954Z,0
2018-06-01T01:12:00.675Z,0
2018-06-01T01:13:10.388Z,0
2018-06-01T01:14:20.366Z,0
2018-06-01T01:15:30.356Z,0
2018-06-01T01:16:40.081Z,0
2018-06-01T01:17:49.550Z,0
2018-06-01T01:18:59.263Z,0
2018-06-01T01:20:09.251Z,0
2018-06-01T01:21:18.965Z,0
2018-06-01T01:22:28.920Z,0
2018-06-01T01:23:38.647Z,0
2018-06-01T01:24:48.610Z,0
2018-06-01T01:25:58.328Z,0
2018-06-01T01:27:08.300Z,0
2018-06-01T01:28:18.023Z,0
2018-06-01T01:29:27.993Z,0
2018-06-01T01:30:38.040Z,0
2018-06-01T01:31:48.012Z,0
2018-06-01T01:32:57.987Z,0
2018-06-01T01:34:07.698Z,0
2018-06-01T01:35:17.469Z,0
2018-06-01T01:36:27.448Z,0
2018-06-01T01:37:37.427Z,0
2018-06-01T01:38:47.143Z,0
2018-06-01T01:39:57.118Z,0
2018-06-01T01:41:07.088Z,0
2018-06-01T01:42:17.061Z,0
2018-06-01T01:43:26.771Z,0
2018-06-01T01:44:36.493Z,0
2018-06-01T01:45:46.468Z,0
2018-06-01T01:46:56.452Z,0
2018-06-01T01:48:06.428Z,0
2018-06-01T01:49:16.147Z,0
2018-06-01T01:50:25.337Z,0
2018-06-01T01:51:35.118Z,0
2018-06-01T01:52:44.853Z,0
2018-06-01T01:53:54.574Z,0
2018-06-01T01:55:04.550Z,0
2018-06-01T01:56:14.522Z,0
2018-06-01T01:57:24.238Z,0
2018-06-01T01:58:33.953Z,0
2018-06-01T01:59:43.926Z,0
2018-06-01T02:00:53.905Z,0
2018-06-01T02:02:03.883Z,0
2018-06-01T02:03:13.919Z,0
2018-06-01T02:04:23.639Z,0
2018-06-01T02:05:33.345Z,0
2018-06-01T02:06:43.051Z,0
2018-06-01T02:07:53.184Z,0
2018-06-01T02:09:02.380Z,0
2018-06-01T02:10:12.368Z,0
2018-06-01T02:11:22.329Z,0
2018-06-01T02:12:32.056Z,0
2018-06-01T02:13:42.033Z,0
2018-06-01T02:14:51.739Z,0
2018-06-01T02:16:01.458Z,0
2018-06-01T02:17:11.172Z,0
2018-06-01T02:18:21.149Z,0
2018-06-01T02:19:30.606Z,0
2018-06-01T02:20:40.582Z,0
2018-06-01T02:21:50.043Z,0
2018-06-01T02:23:00.024Z,0
2018-06-01T02:24:10.001Z,0
2018-06-01T02:25:19.969Z,0
2018-06-01T02:26:29.945Z,0
2018-06-01T02:27:39.957Z,0
2018-06-01T02:28:49.426Z,0
2018-06-01T02:29:59.401Z,0
2018-06-01T02:31:09.407Z,0
2018-06-01T02:32:19.141Z,0
2018-06-01T02:33:29.132Z,0
2018-06-01T02:34:38.853Z,0
2018-06-01T02:35:48.832Z,0
2018-06-01T02:36:58.832Z,0
2018-06-01T02:38:08.819Z,0
2018-06-01T02:39:18.815Z,5
2018-06-01T02:40:28.544Z,5
2018-06-01T02:41:38.525Z,5
2018-06-01T02:42:48.507Z,5
2018-06-01T02:43:58.485Z,5
2018-06-01T02:45:08.221Z,5
2018-06-01T02:46:18.189Z,5
2018-06-01T02:47:27.904Z,10
2018-06-01T02:48:37.898Z,10
2018-06-01T02:49:47.891Z,10
2018-06-01T02:50:57.353Z,10
2018-06-01T02:52:07.363Z,10
2018-06-01T02:53:17.335Z,10
2018-06-01T02:54:27.336Z,15
2018-06-01T02:55:37.051Z,15
2018-06-01T02:56:47.027Z,15
2018-06-01T02:57:57.004Z,15
2018-06-01T02:59:06.985Z,20
2018-06-01T03:00:16.978Z,20
2018-06-01T03:01:26.719Z,20
2018-06-01T03:02:36.700Z,25
2018-06-01T03:03:46.674Z,25
2018-06-01T03:04:56.388Z,25
2018-06-01T03:06:06.370Z,30
2018-06-01T03:07:16.363Z,30
2018-06-01T03:08:26.347Z,35
2018-06-01T03:09:36.089Z,35
2018-06-01T03:10:46.074Z,40
2018-06-01T03:11:55.793Z,40
2018-06-01T03:13:05.766Z,40
2018-06-01T03:14:15.740Z,45
2018-06-01T03:15:25.458Z,45
2018-06-01T03:16:35.429Z,45
2018-06-01T03:17:45.431Z,45
2018-06-01T03:18:55.424Z,50
2018-06-01T03:20:05.140Z,50
2018-06-01T03:21:15.111Z,50
2018-06-01T03:22:25.081Z,55
2018-06-01T03:23:34.795Z,55
2018-06-01T03:24:44.776Z,60
2018-06-01T03:25:54.767Z,60
2018-06-01T03:27:04.501Z,60
2018-06-01T03:28:14.480Z,65
2018-06-01T03:29:24.466Z,65
2018-06-01T03:30:34.462Z,70
2018-06-01T03:31:44.191Z,70
2018-06-01T03:32:53.894Z,75
2018-06-01T03:34:03.617Z,75
2018-06-01T03:35:13.602Z,75
2018-06-01T03:36:23.578Z,80
2018-06-01T03:37:33.295Z,80
2018-06-01T03:38:43.013Z,85
2018-06-01T03:39:52.729Z,85
2018-06-01T03:41:02.719Z,90
2018-06-01T03:42:12.703Z,90
2018-06-01T03:43:22.684Z,95
2018-06-01T03:44:32.694Z,95
2018-06-01T03:45:42.677Z,100
2018-06-01T03:46:52.643Z,100
2018-06-01T03:48:02.620Z,105
2018-06-01T03:49:12.593Z,105
2018-06-01T03:50:22.572Z,110
2018-06-01T03:51:32.294Z,110
2018-06-01T03:52:42.270Z,110
2018-06-01T03:53:51.727Z,115
2018-06-01T03:55:01.437Z,115
2018-06-01T03:56:11.414Z,120
2018-06-01T03:57:21.133Z,120
2018-06-01T03:58:30.842Z,125
2018-06-01T03:59:40.825Z,125
2018-06-01T04:00:50.547Z,130
2018-06-01T04:02:00.262Z,130
2018-06-01T04:03:10.245Z,135
2018-06-01T04:04:20.233Z,135
2018-06-01T04:05:29.950Z,140
2018-06-01T04:06:39.921Z,145
2018-06-01T04:07:49.641Z,145
2018-06-01T04:08:59.368Z,150
2018-06-01T04:10:09.123Z,150
2018-06-01T04:11:18.890Z,155
2018-06-01T04:12:28.870Z,155
2018-06-01T04:13:38.851Z,155
2018-06-01T04:14:48.866Z,160
2018-06-01T04:15:58.844Z,160
2018-06-01T04:17:08.823Z,165
2018-06-01T04:18:18.795Z,165
2018-06-01T04:19:28.776Z,170
2018-06-01T04:20:38.747Z,170
2018-06-01T04:21:48.472Z,175
2018-06-01T04:22:58.438Z,175
2018-06-01T04:24:08.415Z,180
2018-06-01T04:25:18.391Z,180
2018-06-01T04:26:27.847Z,185
2018-06-01T04:27:37.589Z,185
2018-06-01T04:28:47.573Z,185
2018-06-01T04:29:57.287Z,190
2018-06-01T04:31:07.009Z,190
2018-06-01T04:32:16.991Z,190
2018-06-01T04:33:26.722Z,195
2018-06-01T04:34:36.690Z,195
2018-06-01T04:35:46.672Z,200
2018-06-01T04:36:56.646Z,200
2018-06-01T04:38:06.638Z,200
2018-06-01T04:39:16.601Z,205
2018-06-01T04:40:26.351Z,205
2018-06-01T04:41:36.346Z,205
2018-06-01T04:42:46.057Z,210
2018-06-01T04:43:56.041Z,210
2018-06-01T04:45:06.013Z,210
2018-06-01T04:46:15.981Z,215
2018-06-01T04:47:25.719Z,215
2018-06-01T04:48:35.436Z,220
2018-06-01T04:49:45.405Z,220
2018-06-01T04:50:55.375Z,220
2018-06-01T04:52:05.363Z,225
2018-06-01T04:53:15.338Z,225
2018-06-01T04:54:25.063Z,230
2018-06-01T04:55:34.814Z,230
2018-06-01T04:56:44.531Z,230
2018-06-01T04:57:54.252Z,235
2018-06-01T04:59:03.976Z,235
2018-06-01T05:00:14.013Z,240
2018-06-01T05:01:23.997Z,240
2018-06-01T05:02:34.035Z,235
2018-06-01T05:03:44.012Z,240
2018-06-01T05:04:54.010Z,245
2018-06-01T05:06:03.983Z,245
2018-06-01T05:07:13.960Z,250
2018-06-01T05:08:23.941Z,250
2018-06-01T05:09:33.925Z,250
2018-06-01T05:10:43.667Z,255
2018-06-01T05:11:53.651Z,255
2018-06-01T05:13:03.624Z,260
2018-06-01T05:14:13.599Z,260
2018-06-01T05:15:23.588Z,265
2018-06-01T05:16:33.333Z,265
2018-06-01T05:17:43.548Z,265
2018-06-01T05:18:53.523Z,270
2018-06-01T05:20:03.510Z,270
2018-06-01T05:21:13.512Z,275
2018-06-01T05:22:23.128Z,275
2018-06-01T05:23:33.119Z,275
2018-06-01T05:24:43.122Z,280
2018-06-01T05:25:53.095Z,280
2018-06-01T05:27:02.807Z,280
2018-06-01T05:28:12.784Z,285
2018-06-01T05:29:23.200Z,285
2018-06-01T05:30:33.210Z,290
2018-06-01T05:31:43.184Z,290
2018-06-01T05:32:53.168Z,295
2018-06-01T05:34:03.151Z,295
2018-06-01T05:35:13.378Z,290
2018-06-01T05:36:23.357Z,295
2018-06-01T05:37:33.103Z,295
2018-06-01T05:38:43.120Z,295
2018-06-01T05:39:53.132Z,295
2018-06-01T05:41:03.111Z,295
2018-06-01T05:42:12.820Z,300
2018-06-01T05:43:22.793Z,300
2018-06-01T05:44:32.513Z,300
2018-06-01T05:45:42.495Z,305
2018-06-01T05:46:52.470Z,310
2018-06-01T05:48:02.438Z,310
2018-06-01T05:49:12.417Z,310
2018-06-01T05:50:22.403Z,310
2018-06-01T05:51:32.398Z,310
2018-06-01T05:52:42.387Z,315
2018-06-01T05:53:52.106Z,315
2018-06-01T05:55:02.174Z,320
2018-06-01T05:56:11.982Z,320
2018-06-01T05:57:21.979Z,320
2018-06-01T05:58:31.723Z,325
2018-06-01T05:59:41.446Z,325
2018-06-01T06:00:51.435Z,325
2018-06-01T06:02:01.467Z,330
2018-06-01T06:03:11.476Z,330
2018-06-01T06:04:21.197Z,330
2018-06-01T06:05:31.194Z,335
2018-06-01T06:06:41.192Z,335
2018-06-01T06:07:51.172Z,340
2018-06-01T06:09:01.173Z,340
2018-06-01T06:10:10.914Z,340
2018-06-01T06:11:20.899Z,345
2018-06-01T06:12:30.922Z,345
2018-06-01T06:13:41.316Z,350
2018-06-01T06:14:51.312Z,350
2018-06-01T06:16:01.525Z,350
2018-06-01T06:17:19.323Z,355
2018-06-01T06:18:29.318Z,355
2018-06-01T06:19:39.319Z,360
2018-06-01T06:20:49.086Z,365
2018-06-01T06:21:59.323Z,370
2018-06-01T06:23:09.314Z,375
2018-06-01T06:24:19.303Z,380
2018-06-01T06:25:29.294Z,380
2018-06-01T06:26:39.510Z,385
2018-06-01T06:27:48.717Z,385
2018-06-01T06:28:58.709Z,390
2018-06-01T06:30:08.707Z,390
2018-06-01T06:31:18.707Z,390
2018-06-01T06:32:28.686Z,390
2018-06-01T06:33:38.678Z,395
2018-06-01T06:34:48.402Z,395
2018-06-01T06:35:58.400Z,395
2018-06-01T06:37:08.139Z,395
2018-06-01T06:38:18.141Z,395
2018-06-01T06:39:28.163Z,400
2018-06-01T06:40:38.188Z,400
2018-06-01T06:41:48.193Z,400
2018-06-01T06:42:58.187Z,400
2018-06-01T06:44:07.942Z,405
2018-06-01T06:45:17.944Z,405
2018-06-01T06:46:27.965Z,405
2018-06-01T06:47:37.715Z,405
2018-06-01T06:48:47.459Z,410
2018-06-01T06:49:57.453Z,410
2018-06-01T06:51:07.996Z,415
2018-06-01T06:52:17.981Z,415
2018-06-01T06:53:27.981Z,420
2018-06-01T06:54:37.723Z,425
2018-06-01T06:55:47.452Z,425
2018-06-01T06:56:57.467Z,430
2018-06-01T06:58:07.208Z,435
2018-06-01T06:59:17.234Z,440
2018-06-01T07:00:27.268Z,455
2018-06-01T07:01:37.261Z,465
2018-06-01T07:02:47.488Z,480
2018-06-01T07:03:57.575Z,500
2018-06-01T07:05:07.603Z,520
2018-06-01T07:06:17.355Z,530
2018-06-01T07:07:27.365Z,545
2018-06-01T07:08:37.096Z,550
2018-06-01T07:09:47.099Z,545
2018-06-01T07:10:57.117Z,545
2018-06-01T07:12:07.120Z,565
2018-06-01T07:13:17.097Z,585
2018-06-01T07:14:26.823Z,585
2018-06-01T07:15:36.821Z,580
2018-06-01T07:16:46.819Z,555
2018-06-01T07:17:56.571Z,535
2018-06-01T07:19:06.594Z,535
2018-06-01T07:20:16.692Z,540
2018-06-01T07:21:26.433Z,550
2018-06-01T07:22:36.543Z,575
2018-06-01T07:23:46.516Z,595
2018-06-01T07:24:56.545Z,615
2018-06-01T07:26:06.566Z,620
2018-06-01T07:27:16.561Z,615
2018-06-01T07:28:26.561Z,600
2018-06-01T07:29:36.298Z,605
2018-06-01T07:30:45.770Z,605
2018-06-01T07:31:55.785Z,610
2018-06-01T07:33:05.514Z,610
2018-06-01T07:34:15.244Z,610
2018-06-01T07:35:25.228Z,615
2018-06-01T07:36:35.230Z,620
2018-06-01T07:37:45.242Z,625
2018-06-01T07:38:55.524Z,630
2018-06-01T07:40:05.498Z,640
2018-06-01T07:41:15.224Z,650
2018-06-01T07:42:24.944Z,665
2018-06-01T07:43:34.671Z,675
2018-06-01T07:44:44.398Z,665
2018-06-01T07:45:54.421Z,665
2018-06-01T07:47:04.425Z,665
2018-06-01T07:48:14.421Z,670
2018-06-01T07:49:24.147Z,680
2018-06-01T07:50:33.868Z,680
2018-06-01T07:51:43.879Z,685
2018-06-01T07:52:53.869Z,685
2018-06-01T07:54:03.855Z,700
2018-06-01T07:55:13.861Z,720
2018-06-01T07:56:23.910Z,745
2018-06-01T07:57:33.640Z,755
2018-06-01T07:58:43.372Z,760
2018-06-01T07:59:53.093Z,775
2018-06-01T08:01:02.819Z,795
2018-06-01T08:02:12.797Z,810
2018-06-01T08:03:22.586Z,800
2018-06-01T08:04:32.594Z,770
2018-06-01T08:05:42.623Z,755
2018-06-01T08:06:52.632Z,755
2018-06-01T08:08:02.605Z,765
2018-06-01T08:09:12.504Z,780
2018-06-01T08:10:22.242Z,805
2018-06-01T08:11:32.215Z,825
2018-06-01T08:12:41.976Z,840
2018-06-01T08:13:51.989Z,850
2018-06-01T08:15:01.996Z,865
2018-06-01T08:16:11.987Z,865
2018-06-01T08:17:22.006Z,875
2018-06-01T08:18:31.758Z,865
2018-06-01T08:19:41.838Z,870
2018-06-01T08:20:51.599Z,900
2018-06-01T08:22:01.381Z,910
2018-06-01T08:23:11.432Z,910
2018-06-01T08:24:21.224Z,920
2018-06-01T08:25:31.008Z,935
2018-06-01T08:26:40.779Z,930
2018-06-01T08:27:50.809Z,945
2018-06-01T08:29:00.806Z,960
2018-06-01T08:30:10.849Z,985
2018-06-01T08:31:20.624Z,1175
2018-06-01T08:32:30.795Z,1440
2018-06-01T08:33:40.820Z,1480
2018-06-01T08:34:50.878Z,1535
2018-06-01T08:36:00.864Z,1610
2018-06-01T08:37:10.873Z,1590
2018-06-01T08:38:20.879Z,1620
2018-06-01T08:39:31.355Z,1600
2018-06-01T08:40:40.988Z,1670
2018-06-01T08:41:50.744Z,1705
2018-06-01T08:43:00.513Z,1325
2018-06-01T08:44:10.567Z,1400
2018-06-01T08:45:20.287Z,1340
2018-06-01T08:46:30.575Z,1320
2018-06-01T08:47:40.651Z,1220
2018-06-01T08:48:50.673Z,1130
2018-06-01T08:50:00.689Z,1095
2018-06-01T08:51:10.679Z,1090
2018-06-01T08:52:20.681Z,1055
2018-06-01T08:53:30.694Z,1055
2018-06-01T08:54:39.904Z,1105
2018-06-01T08:55:49.970Z,1270
2018-06-01T08:56:59.716Z,1270
2018-06-01T08:58:09.728Z,1120
2018-06-01T08:59:20.253Z,935
2018-06-01T09:00:30.255Z,920
2018-06-01T09:01:39.986Z,975
2018-06-01T09:02:50.017Z,970
2018-06-01T09:04:00.039Z,955
2018-06-01T09:05:10.099Z,835
2018-06-01T09:06:20.119Z,815
2018-06-01T09:07:29.857Z,1040
2018-06-01T09:08:39.603Z,1065
2018-06-01T09:09:49.595Z,1150
2018-06-01T09:10:59.068Z,1285
2018-06-01T09:12:08.802Z,820
2018-06-01T09:13:18.796Z,685
2018-06-01T09:14:28.808Z,620
2018-06-01T09:15:38.311Z,580
2018-06-01T09:16:48.547Z,565
2018-06-01T09:17:58.611Z,560
2018-06-01T09:19:08.335Z,555
2018-06-01T09:20:18.074Z,565
2018-06-01T09:21:27.805Z,575
2018-06-01T09:22:37.808Z,590
2018-06-01T09:23:47.815Z,605
2018-06-01T09:24:57.803Z,625
2018-06-01T09:26:07.794Z,640
2018-06-01T09:27:17.786Z,670
2018-06-01T09:28:27.956Z,690
2018-06-01T09:29:38.025Z,710
2018-06-01T09:30:47.506Z,730
2018-06-01T09:31:57.492Z,750
2018-06-01T09:33:07.522Z,775
2018-06-01T09:34:17.538Z,800
2018-06-01T09:35:27.642Z,825
2018-06-01T09:36:37.451Z,840
2018-06-01T09:37:47.183Z,855
2018-06-01T09:38:57.217Z,875
2018-06-01T09:40:06.708Z,875
2018-06-01T09:41:16.455Z,895
2018-06-01T09:42:26.250Z,925
2018-06-01T09:43:35.953Z,950
2018-06-01T09:44:46.000Z,980
2018-06-01T09:45:55.749Z,1015
2018-06-01T09:47:05.786Z,1035
2018-06-01T09:48:15.797Z,1065
2018-06-01T09:49:25.809Z,1080
2018-06-01T09:50:35.823Z,1100
2018-06-01T09:51:45.855Z,1120
2018-06-01T09:52:55.579Z,1145
2018-06-01T09:54:05.358Z,1600
2018-06-01T09:55:15.596Z,2250
2018-06-01T09:56:25.619Z,2335
2018-06-01T09:57:35.360Z,2340
2018-06-01T09:58:45.344Z,1930
2018-06-01T09:59:55.343Z,2010
2018-06-01T10:01:05.352Z,2355
2018-06-01T10:02:15.371Z,2380
2018-06-01T10:03:24.863Z,2340
2018-06-01T10:04:34.939Z,2345
2018-06-01T10:05:44.665Z,2195
2018-06-01T10:06:54.724Z,2240
2018-06-01T10:08:04.508Z,2380
2018-06-01T10:09:14.529Z,2480
2018-06-01T10:10:24.536Z,2480
2018-06-01T10:11:34.359Z,2490
2018-06-01T10:12:44.089Z,2475
2018-06-01T10:13:53.848Z,2415
2018-06-01T10:15:03.857Z,2395
2018-06-01T10:16:13.590Z,2505
2018-06-01T10:17:23.614Z,2500
2018-06-01T10:18:33.101Z,2380
2018-06-01T10:19:43.101Z,2335
2018-06-01T10:20:53.115Z,2575
2018-06-01T10:22:03.125Z,2535
2018-06-01T10:23:12.867Z,2390
2018-06-01T10:24:22.878Z,2435
2018-06-01T10:25:32.880Z,2465
2018-06-01T10:26:42.809Z,2460
2018-06-01T10:27:52.561Z,2485
2018-06-01T10:29:02.312Z,2400
2018-06-01T10:30:11.809Z,2375
2018-06-01T10:31:21.563Z,2435
2018-06-01T10:32:31.044Z,2485
2018-06-01T10:33:40.797Z,2490
2018-06-01T10:34:50.794Z,2475
2018-06-01T10:36:00.794Z,2500
2018-06-01T10:37:10.800Z,2535
2018-06-01T10:38:20.815Z,2505
2018-06-01T10:39:30.943Z,2535
2018-06-01T10:40:40.943Z,2660
2018-06-01T10:41:50.710Z,2695
2018-06-01T10:43:00.729Z,2595
2018-06-01T10:44:10.751Z,2575
2018-06-01T10:45:21.331Z,2580
2018-06-01T10:46:31.384Z,2620
2018-06-01T10:47:41.134Z,2640
2018-06-01T10:48:51.157Z,2615
2018-06-01T10:50:01.169Z,2615
2018-06-01T10:51:11.199Z,2685
2018-06-01T10:52:21.281Z,2790
2018-06-01T10:53:31.296Z,2785
2018-06-01T10:54:41.070Z,2395
2018-06-01T10:55:50.830Z,2415
2018-06-01T10:57:00.852Z,2455
2018-06-01T10:58:10.882Z,2330
2018-06-01T10:59:20.904Z,2745
2018-06-01T11:00:30.954Z,2900
2018-06-01T11:01:41.223Z,2890
2018-06-01T11:02:51.272Z,2685
2018-06-01T11:04:01.052Z,2790
2018-06-01T11:05:10.836Z,2660
2018-06-01T11:06:20.581Z,2255
2018-06-01T11:07:30.090Z,2300
2018-06-01T11:08:40.137Z,2910
2018-06-01T11:09:50.208Z,2895
2018-06-01T11:11:00.264Z,2930
2018-06-01T11:12:10.023Z,2510
2018-06-01T11:13:20.294Z,3060
2018-06-01T11:14:30.544Z,2110
2018-06-01T11:15:40.612Z,2045
2018-06-01T11:16:50.616Z,2645
2018-06-01T11:18:00.748Z,2880
2018-06-01T11:19:10.270Z,2375
2018-06-01T11:20:19.823Z,2725
2018-06-01T11:21:30.239Z,2910
2018-06-01T11:22:40.259Z,2880
2018-06-01T11:23:50.302Z,2740
2018-06-01T11:25:00.323Z,2775
2018-06-01T11:26:10.323Z,2825
2018-06-01T11:27:20.338Z,2785
2018-06-01T11:28:30.362Z,2785
2018-06-01T11:29:40.384Z,2775
2018-06-01T11:30:50.403Z,2795
2018-06-01T11:32:00.135Z,2805
2018-06-01T11:33:10.200Z,2900
2018-06-01T11:34:19.958Z,3010
2018-06-01T11:35:29.969Z,2945
2018-06-01T11:36:40.045Z,2950
2018-06-01T11:37:50.077Z,2850
2018-06-01T11:39:00.140Z,2755
2018-06-01T11:40:10.143Z,2810
2018-06-01T11:41:19.888Z,2860
2018-06-01T11:42:29.911Z,2835
2018-06-01T11:43:39.965Z,2850
2018-06-01T11:44:49.720Z,2930
2018-06-01T11:45:59.495Z,2880
2018-06-01T11:47:09.282Z,2820
2018-06-01T11:48:19.036Z,2930
2018-06-01T11:49:28.803Z,3000
2018-06-01T11:50:38.828Z,2970
2018-06-01T11:51:48.320Z,2950
2018-06-01T11:52:58.334Z,2940
2018-06-01T11:54:08.127Z,3060
2018-06-01T11:55:18.128Z,3145
2018-06-01T11:56:28.148Z,3095
2018-06-01T11:57:37.902Z,3025
2018-06-01T11:58:47.912Z,3040
2018-06-01T11:59:57.909Z,3025
2018-06-01T12:01:07.929Z,2990
2018-06-01T12:02:17.943Z,2960
2018-06-01T12:03:27.960Z,2970
2018-06-01T12:04:37.694Z,3005
2018-06-01T12:05:47.676Z,2990
2018-06-01T12:06:57.424Z,3020
2018-06-01T12:08:07.169Z,3035
2018-06-01T12:09:17.170Z,3035
2018-06-01T12:10:26.922Z,3065
2018-06-01T12:11:36.410Z,3090
2018-06-01T12:12:46.164Z,3100
2018-06-01T12:13:55.930Z,3150
2018-06-01T12:15:05.933Z,3130
2018-06-01T12:16:15.679Z,3060
2018-06-01T12:17:25.680Z,3075
2018-06-01T12:18:35.440Z,3080
2018-06-01T12:19:45.466Z,3075
2018-06-01T12:20:56.101Z,3090
2018-06-01T12:22:06.094Z,3110
2018-06-01T12:23:16.295Z,3060
2018-06-01T12:24:26.336Z,3100
2018-06-01T12:25:36.096Z,3090
2018-06-01T12:26:46.098Z,2985
2018-06-01T12:27:56.144Z,2930
2018-06-01T12:29:06.257Z,2940
2018-06-01T12:30:16.020Z,2830
2018-06-01T12:31:25.802Z,3110
2018-06-01T12:32:36.014Z,3140
2018-06-01T12:33:45.757Z,3240
2018-06-01T12:34:55.497Z,3305
2018-06-01T12:36:05.518Z,3255
2018-06-01T12:37:15.537Z,3155
2018-06-01T12:38:25.601Z,3125
2018-06-01T12:39:35.626Z,3155
2018-06-01T12:40:45.625Z,3125
2018-06-01T12:41:55.630Z,3070
2018-06-01T12:43:05.628Z,3040
2018-06-01T12:44:15.633Z,3090
2018-06-01T12:45:25.643Z,3205
2018-06-01T12:46:35.688Z,3175
2018-06-01T12:47:45.699Z,3155
2018-06-01T12:48:55.441Z,3165
2018-06-01T12:50:05.439Z,3120
2018-06-01T12:51:14.930Z,3090
2018-06-01T12:52:24.696Z,3140
2018-06-01T12:53:34.689Z,3140
2018-06-01T12:54:44.441Z,3105
2018-06-01T12:55:54.459Z,3075
2018-06-01T12:57:04.209Z,3180
2018-06-01T12:58:13.690Z,3230
2018-06-01T12:59:23.711Z,3285
2018-06-01T13:00:33.713Z,3250
2018-06-01T13:01:43.478Z,3085
2018-06-01T13:02:53.494Z,2990
2018-06-01T13:04:03.526Z,3020
2018-06-01T13:05:13.537Z,3030
2018-06-01T13:06:23.565Z,3095
2018-06-01T13:07:33.310Z,3150
2018-06-01T13:08:43.311Z,3195
2018-06-01T13:09:53.311Z,3065
2018-06-01T13:11:03.323Z,3020
2018-06-01T13:12:13.080Z,3090
2018-06-01T13:13:22.815Z,2780
2018-06-01T13:14:32.544Z,3080
2018-06-01T13:15:42.558Z,3020
2018-06-01T13:16:52.561Z,2920
2018-06-01T13:18:02.559Z,2420
2018-06-01T13:19:12.362Z,2685
2018-06-01T13:20:22.372Z,2330
2018-06-01T13:21:32.363Z,2285
2018-06-01T13:22:42.378Z,1420
2018-06-01T13:23:52.413Z,1650
2018-06-01T13:25:02.426Z,2150
2018-06-01T13:26:12.179Z,2140
2018-06-01T13:27:21.948Z,2090
2018-06-01T13:28:31.691Z,2105
2018-06-01T13:29:41.698Z,1230
2018-06-01T13:30:51.712Z,1265
2018-06-01T13:32:01.749Z,1195
2018-06-01T13:33:11.777Z,1230
2018-06-01T13:34:21.774Z,1305
2018-06-01T13:35:31.883Z,1485
2018-06-01T13:36:41.619Z,2170
2018-06-01T13:37:50.858Z,2245
2018-06-01T13:39:00.873Z,2215
2018-06-01T13:40:10.863Z,2415
2018-06-01T13:41:20.855Z,2610
2018-06-01T13:42:30.851Z,2580
2018-06-01T13:43:40.597Z,2510
2018-06-01T13:44:50.333Z,2475
2018-06-01T13:46:00.357Z,2455
2018-06-01T13:47:10.092Z,2475
2018-06-01T13:48:20.082Z,2645
2018-06-01T13:49:30.090Z,2720
2018-06-01T13:50:39.873Z,2785
2018-06-01T13:51:49.603Z,2775
2018-06-01T13:52:59.603Z,2810
2018-06-01T13:54:09.352Z,2690
2018-06-01T13:55:19.384Z,2455
2018-06-01T13:56:29.400Z,2360
2018-06-01T13:57:39.418Z,2330
2018-06-01T13:58:49.454Z,2285
2018-06-01T13:59:59.471Z,2375
2018-06-01T14:01:09.461Z,2570
2018-06-01T14:02:19.205Z,2730
2018-06-01T14:03:29.306Z,2645
2018-06-01T14:04:38.791Z,2535
2018-06-01T14:05:48.537Z,2455
2018-06-01T14:06:58.265Z,2435
2018-06-01T14:08:08.001Z,2460
2018-06-01T14:09:18.007Z,2525
2018-06-01T14:10:27.290Z,2585
2018-06-01T14:11:37.282Z,2575
2018-06-01T14:12:47.034Z,2660
2018-06-01T14:13:56.786Z,2560
2018-06-01T14:15:06.807Z,2435
2018-06-01T14:16:16.807Z,2555
2018-06-01T14:17:26.303Z,2575
2018-06-01T14:18:36.041Z,2475
2018-06-01T14:19:46.021Z,2510
2018-06-01T14:20:55.758Z,2480
2018-06-01T14:22:05.777Z,2480
2018-06-01T14:23:15.793Z,1920
2018-06-01T14:24:25.841Z,1835
2018-06-01T14:25:35.848Z,1760
2018-06-01T14:26:45.943Z,1345
2018-06-01T14:27:55.418Z,1325
2018-06-01T14:29:05.168Z,1720
2018-06-01T14:30:14.654Z,2010
2018-06-01T14:31:24.380Z,2010
2018-06-01T14:32:34.388Z,1935
2018-06-01T14:33:44.385Z,2010
2018-06-01T14:34:53.873Z,1670
2018-06-01T14:36:03.933Z,1210
2018-06-01T14:37:13.671Z,1010
2018-06-01T14:38:23.673Z,995
2018-06-01T14:39:33.407Z,1080
2018-06-01T14:40:43.819Z,1510
2018-06-01T14:41:53.957Z,1575
2018-06-01T14:43:03.963Z,1615
2018-06-01T14:44:13.968Z,1060
2018-06-01T14:45:23.961Z,1360
2018-06-01T14:46:33.704Z,1680
2018-06-01T14:47:43.688Z,1630
2018-06-01T14:48:53.709Z,1675
2018-06-01T14:50:02.938Z,1690
2018-06-01T14:51:12.666Z,1660
2018-06-01T14:52:22.392Z,1630
2018-06-01T14:53:32.385Z,1765
2018-06-01T14:54:42.487Z,1725
2018-06-01T14:55:52.108Z,1765
2018-06-01T14:57:01.847Z,1825
2018-06-01T14:58:11.843Z,1290
2018-06-01T14:59:21.843Z,1665
2018-06-01T15:00:31.860Z,1830
2018-06-01T15:01:41.908Z,2150
2018-06-01T15:02:51.903Z,2300
2018-06-01T15:04:01.652Z,2320
2018-06-01T15:05:11.692Z,2265
2018-06-01T15:06:21.422Z,2250
2018-06-01T15:07:31.427Z,2145
2018-06-01T15:08:41.353Z,1935
2018-06-01T15:09:51.358Z,1015
2018-06-01T15:11:01.084Z,950
2018-06-01T15:12:11.082Z,950
2018-06-01T15:13:20.558Z,970
2018-06-01T15:14:30.572Z,995
2018-06-01T15:15:40.321Z,1015
2018-06-01T15:16:50.315Z,1855
2018-06-01T15:18:00.322Z,985
2018-06-01T15:19:10.311Z,945
2018-06-01T15:20:20.556Z,930
2018-06-01T15:21:30.373Z,920
2018-06-01T15:22:40.363Z,905
2018-06-01T15:23:49.862Z,1440
2018-06-01T15:24:59.861Z,815
2018-06-01T15:26:09.605Z,760
2018-06-01T15:27:19.616Z,715
2018-06-01T15:28:29.342Z,685
2018-06-01T15:29:39.342Z,640
2018-06-01T15:30:49.340Z,615
2018-06-01T15:31:59.344Z,585
2018-06-01T15:33:09.357Z,575
2018-06-01T15:34:19.103Z,585
2018-06-01T15:35:28.840Z,925
2018-06-01T15:36:38.578Z,1160
2018-06-01T15:37:48.316Z,1250
2018-06-01T15:38:58.047Z,735
2018-06-01T15:40:08.034Z,1325
2018-06-01T15:41:17.827Z,760
2018-06-01T15:42:27.583Z,730
2018-06-01T15:43:37.601Z,710
2018-06-01T15:44:47.356Z,780
2018-06-01T15:45:57.361Z,700
2018-06-01T15:47:07.353Z,1175
2018-06-01T15:48:17.355Z,835
2018-06-01T15:49:27.368Z,475
2018-06-01T15:50:37.381Z,405
2018-06-01T15:51:47.372Z,345
2018-06-01T15:52:57.470Z,320
2018-06-01T15:54:07.471Z,285
2018-06-01T15:55:17.206Z,250
2018-06-01T15:56:26.958Z,210
2018-06-01T15:57:36.964Z,190
2018-06-01T15:58:47.191Z,175
2018-06-01T15:59:57.208Z,165
2018-06-01T16:01:07.203Z,165
2018-06-01T16:02:17.193Z,155
2018-06-01T16:03:26.935Z,145